Time;durP1;ratioP1;P1;durP2;ratioP2;P2;SDS_P1;SDS_P2;PMS_P1;PMS_P2;Temp;Humidity;BMP_temperature;BMP_pressure;BME280_temperature;BME280_humidity;BME280_pressure;Samples;Min_cycle;Max_cycle;Signal;HPM_P1;HPM_P2
2022/07/24 00:01:57;;;;;;;;;15.75;14.00;;;;;24.07;51.58;101389.50;4865773;29;46922;-67
2022/07/24 00:04:23;;;;;;;;;18.00;16.75;;;;;24.04;51.92;101392.84;4866219;29;45363;-65
2022/07/24 00:06:49;;;;;;;;;14.25;14.25;;;;;24.03;51.88;101383.59;4865988;29;45441;-65
2022/07/24 00:09:14;;;;;;;;;15.75;15.75;;;;;24.06;51.97;101385.84;4851509;29;45472;-64
2022/07/24 00:11:39;;;;;;;;;17.75;15.50;;;;;23.82;51.99;101350.06;4850772;29;45847;-64
2022/07/24 00:14:05;;;;;;;;;18.25;18.25;;;;;23.78;52.24;101370.53;4835823;29;45712;-65
2022/07/24 00:16:30;;;;;;;;;18.50;17.50;;;;;23.85;52.23;101395.47;4883426;29;45413;-65
2022/07/24 00:18:56;;;;;;;;;14.00;14.00;;;;;23.88;52.53;101387.31;4850947;29;45334;-64
2022/07/24 00:21:21;;;;;;;;;20.75;16.75;;;;;23.94;52.03;101388.13;4866392;29;46262;-65
2022/07/24 00:23:47;;;;;;;;;16.50;15.25;;;;;23.89;52.45;101385.34;4883101;29;45278;-64
2022/07/24 00:26:13;;;;;;;;;19.00;18.00;;;;;23.79;52.62;101392.66;4883283;29;45442;-64
2022/07/24 00:28:38;;;;;;;;;20.00;18.25;;;;;23.66;52.22;101365.25;4866617;29;45325;-65
2022/07/24 00:31:04;;;;;;;;;16.75;15.75;;;;;23.80;52.74;101387.91;4850398;29;48395;-65
2022/07/24 00:33:29;;;;;;;;;24.50;22.00;;;;;23.80;52.69;101385.13;4882896;29;45310;-64
2022/07/24 00:35:55;;;;;;;;;16.00;16.00;;;;;23.79;52.58;101383.41;4866300;29;45396;-65
2022/07/24 00:38:20;;;;;;;;;19.50;16.50;;;;;23.79;52.80;101367.44;4865994;29;45505;-64
2022/07/24 00:40:46;;;;;;;;;19.75;16.00;;;;;23.69;52.58;101359.91;4866039;29;46473;-64
2022/07/24 00:43:12;;;;;;;;;16.25;15.75;;;;;23.67;53.31;101353.78;4882476;29;45409;-64
2022/07/24 00:45:38;;;;;;;;;17.80;17.20;;;;;23.74;52.75;101356.25;4850884;29;45471;-65
2022/07/24 00:48:04;;;;;;;;;15.50;13.75;;;;;23.19;52.84;101260.91;4882679;29;45406;-65
2022/07/24 00:50:30;;;;;;;;;9.00;9.00;;;;;23.71;52.92;101325.16;4865831;29;45422;-66
2022/07/24 00:52:55;;;;;;;;;17.50;17.00;;;;;23.71;52.74;101344.78;4849927;29;45365;-66
2022/07/24 00:55:21;;;;;;;;;18.25;17.00;;;;;23.71;52.88;101351.22;4882760;29;45255;-65
2022/07/24 00:57:48;;;;;;;;;18.50;17.25;;;;;23.77;52.83;101343.63;4882849;29;45375;-64
2022/07/24 01:00:14;;;;;;;;;16.00;15.00;;;;;23.63;52.72;101319.03;4850639;29;45649;-65
2022/07/24 01:02:41;;;;;;;;;19.00;17.80;;;;;23.75;53.04;101341.13;4882069;29;45343;-64
2022/07/24 01:05:08;;;;;;;;;22.60;20.80;;;;;23.53;52.82;101305.09;4865831;29;45462;-65
2022/07/24 01:07:33;;;;;;;;;16.00;16.00;;;;;23.64;52.81;101333.91;4882306;29;45406;-65
2022/07/24 01:09:59;;;;;;;;;15.75;15.75;;;;;23.68;52.87;101332.19;4849980;29;46630;-65
2022/07/24 01:12:25;;;;;;;;;14.00;11.25;;;;;23.56;53.22;101310.09;4864811;29;45921;-65
2022/07/24 01:14:50;;;;;;;;;16.25;16.25;;;;;23.72;52.96;101338.03;4850104;29;45332;-65
2022/07/24 01:17:16;;;;;;;;;17.75;17.50;;;;;23.73;53.00;101337.75;4882835;29;45761;-63
2022/07/24 01:19:41;;;;;;;;;20.50;16.50;;;;;23.77;52.94;101343.63;4865435;29;47272;-64
2022/07/24 01:22:07;;;;;;;;;22.25;19.25;;;;;23.78;52.32;101339.69;4882379;29;45307;-65
2022/07/24 01:24:32;;;;;;;;;22.50;20.00;;;;;23.60;52.73;101322.44;4865353;29;45478;-64
2022/07/24 01:26:58;;;;;;;;;18.75;17.00;;;;;23.65;53.10;101343.97;4865339;29;45554;-65
2022/07/24 01:29:23;;;;;;;;;16.50;16.25;;;;;23.40;53.30;101329.78;4864980;29;46668;-64
2022/07/24 01:31:49;;;;;;;;;14.75;14.75;;;;;23.50;53.41;101350.47;4881886;29;45383;-66
2022/07/24 01:34:14;;;;;;;;;18.00;16.25;;;;;23.48;53.69;101352.72;4849733;29;45393;-65
2022/07/24 01:36:42;;;;;;;;;17.75;17.75;;;;;23.51;53.28;101353.00;4865332;29;45407;-65
2022/07/24 01:39:07;;;;;;;;;19.20;15.40;;;;;23.28;53.17;101292.81;4841200;29;46027;-64
2022/07/24 01:41:33;;;;;;;;;16.25;15.75;;;;;23.61;53.39;101340.91;4865035;29;45330;-65
2022/07/24 01:43:58;;;;;;;;;20.00;20.00;;;;;23.68;52.87;101347.03;4881640;29;45401;-64
2022/07/24 01:46:24;;;;;;;;;17.50;17.50;;;;;23.52;52.96;101317.41;4865643;29;45384;-63
2022/07/24 01:48:49;;;;;;;;;17.00;17.00;;;;;23.74;52.93;101352.63;4864593;29;45503;-64
2022/07/24 01:51:15;;;;;;;;;20.25;19.50;;;;;23.10;52.71;101253.13;4864719;29;45497;-65
2022/07/24 01:53:40;;;;;;;;;18.25;18.00;;;;;23.58;53.04;101335.88;4864510;29;45355;-65
2022/07/24 01:56:06;;;;;;;;;23.25;19.25;;;;;23.60;53.50;101338.38;4881047;29;45445;-64
2022/07/24 01:58:31;;;;;;;;;17.75;17.25;;;;;23.60;53.29;101338.38;4864575;29;46197;-65
2022/07/24 02:00:57;;;;;;;;;21.50;20.50;;;;;23.62;52.95;101330.53;4864458;29;45420;-65
2022/07/24 02:03:22;;;;;;;;;18.50;18.00;;;;;23.57;53.03;101334.19;4864640;29;45425;-63
2022/07/24 02:05:48;;;;;;;;;23.25;21.00;;;;;23.55;52.47;101325.25;4864377;29;45365;-66
2022/07/24 02:08:13;;;;;;;;;15.75;15.25;;;;;23.46;52.26;101298.94;4881851;29;45658;-65
2022/07/24 02:10:39;;;;;;;;;15.75;15.75;;;;;23.59;52.05;101325.50;4849090;29;45324;-67
2022/07/24 02:13:05;;;;;;;;;20.50;17.00;;;;;23.56;52.51;101326.91;4849473;29;45292;-64
2022/07/24 02:15:30;;;;;;;;;14.50;14.50;;;;;23.55;52.86;101331.66;4865129;29;45716;-64
2022/07/24 02:17:58;;;;;;;;;18.75;17.50;;;;;23.39;52.58;101313.25;4864524;29;46544;-66
2022/07/24 02:20:24;;;;;;;;;19.80;18.60;;;;;23.39;53.02;101305.72;4864787;29;45518;-66
2022/07/24 02:22:50;;;;;;;;;17.00;14.75;;;;;23.55;52.77;101328.88;4849156;29;45556;-64
2022/07/24 02:25:15;;;;;;;;;17.75;17.00;;;;;23.41;52.68;101303.44;4849179;29;45437;-66
2022/07/24 02:27:41;;;;;;;;;20.75;15.25;;;;;23.44;52.95;101315.19;4849099;29;46313;-64
2022/07/24 02:30:09;;;;;;;;;21.00;18.00;;;;;23.24;53.06;101286.97;4863905;29;45300;-65
2022/07/24 02:32:34;;;;;;;;;18.60;18.00;;;;;23.39;52.77;101307.66;4849463;29;45421;-65
2022/07/24 02:35:00;;;;;;;;;19.50;17.50;;;;;23.45;52.57;101314.06;4864061;29;45548;-64
2022/07/24 02:37:25;;;;;;;;;14.75;14.00;;;;;23.27;52.58;101286.38;4864579;29;45713;-65
2022/07/24 02:39:51;;;;;;;;;14.00;14.00;;;;;23.38;52.67;101304.00;4864058;29;45419;-65
2022/07/24 02:42:16;;;;;;;;;14.75;14.75;;;;;23.30;53.05;101285.00;4864205;29;45435;-63
2022/07/24 02:44:42;;;;;;;;;17.00;15.00;;;;;23.29;52.67;101280.50;4810010;29;45648;-66
2022/07/24 02:47:07;;;;;;;;;14.00;11.25;;;;;23.47;52.53;101300.63;4864029;29;45570;-65
2022/07/24 02:49:33;;;;;;;;;16.50;14.00;;;;;23.40;52.80;101300.94;4880928;29;45358;-66
2022/07/24 02:51:58;;;;;;;;;16.25;14.50;;;;;23.36;52.43;101294.22;4848454;29;45473;-64
2022/07/24 02:54:24;;;;;;;;;13.75;13.75;;;;;23.32;52.87;101285.53;4881136;29;45446;-66
2022/07/24 02:56:49;;;;;;;;;19.50;16.75;;;;;23.34;52.55;101285.25;4864225;29;46714;-67
2022/07/24 02:59:15;;;;;;;;;13.50;12.00;;;;;23.34;51.96;101280.50;4863888;29;45433;-64
2022/07/24 03:01:40;;;;;;;;;14.75;13.75;;;;;23.33;52.56;101287.25;4881281;29;45490;-66
2022/07/24 03:04:06;;;;;;;;;12.75;12.00;;;;;23.27;52.18;101279.94;4848759;29;45467;-64
2022/07/24 03:06:31;;;;;;;;;12.75;12.75;;;;;23.31;52.03;101281.06;4848072;29;47067;-65
2022/07/24 03:08:57;;;;;;;;;13.75;11.25;;;;;23.30;51.92;101276.59;4863935;29;45380;-67
2022/07/24 03:11:22;;;;;;;;;14.75;14.75;;;;;23.15;52.19;101255.91;4880527;29;45441;-64
2022/07/24 03:13:48;;;;;;;;;14.75;13.50;;;;;22.98;52.29;101225.44;4881036;29;45339;-64
2022/07/24 03:16:13;;;;;;;;;18.00;13.25;;;;;23.27;52.29;101282.75;4848041;29;46172;-64
2022/07/24 03:18:40;;;;;;;;;14.25;13.00;;;;;23.28;52.28;101274.03;4863880;29;45333;-65
2022/07/24 03:21:06;;;;;;;;;12.40;11.00;;;;;23.29;52.17;101277.69;4848697;29;45508;-67
2022/07/24 03:23:31;;;;;;;;;15.25;13.25;;;;;23.24;52.25;101270.16;4880919;29;45582;-65
2022/07/24 03:25:57;;;;;;;;;12.75;10.75;;;;;23.27;52.24;101285.56;4880324;29;46292;-66
2022/07/24 03:28:23;;;;;;;;;17.00;14.50;;;;;23.05;51.95;101243.91;4863351;29;45430;-66
2022/07/24 03:30:48;;;;;;;;;16.75;13.50;;;;;23.24;52.32;101272.97;4880617;29;45366;-65
2022/07/24 03:33:13;;;;;;;;;14.25;13.25;;;;;23.23;52.27;101276.03;4864137;29;45466;-66
2022/07/24 03:35:39;;;;;;;;;15.50;13.25;;;;;23.17;52.58;101277.16;4862860;29;45340;-65
2022/07/24 03:38:04;;;;;;;;;12.25;12.25;;;;;23.09;52.80;101273.84;4880764;29;45209;-67
2022/07/24 03:40:30;;;;;;;;;13.25;12.25;;;;;23.13;52.65;101280.56;4863372;29;45460;-65
2022/07/24 03:42:55;;;;;;;;;17.25;14.75;;;;;23.14;52.75;101282.22;4880895;29;45569;-65
2022/07/24 03:45:21;;;;;;;;;13.75;13.50;;;;;23.05;52.92;101255.91;4854753;29;48147;-67
2022/07/24 03:47:47;;;;;;;;;17.25;14.50;;;;;23.21;52.85;101281.09;4880448;29;45290;-65
2022/07/24 03:50:12;;;;;;;;;9.50;9.50;;;;;23.19;52.47;101286.97;4862549;29;45489;-64
2022/07/24 03:52:37;;;;;;;;;13.50;12.75;;;;;23.01;52.66;101252.84;4863398;29;45338;-64
2022/07/24 03:55:04;;;;;;;;;16.25;15.50;;;;;23.13;53.16;101279.69;4879994;29;46650;-64
2022/07/24 03:57:29;;;;;;;;;13.00;13.00;;;;;23.00;52.66;101264.34;4863070;29;45373;-66
2022/07/24 03:59:55;;;;;;;;;10.75;10.75;;;;;22.82;52.68;101227.44;4863607;29;45249;-65
2022/07/24 04:02:20;;;;;;;;;12.00;12.00;;;;;22.92;52.26;101245.31;4880627;29;45528;-67
2022/07/24 04:04:46;;;;;;;;;12.50;12.25;;;;;23.11;52.71;101274.38;4847444;29;45264;-63
2022/07/24 04:07:11;;;;;;;;;14.25;12.50;;;;;23.08;52.34;101280.56;4879783;29;45470;-65
2022/07/24 04:09:37;;;;;;;;;11.25;10.50;;;;;23.03;52.80;101274.97;4863227;29;45523;-67
2022/07/24 04:12:02;;;;;;;;;13.75;13.75;;;;;22.91;52.24;101258.50;4880693;29;45660;-65
2022/07/24 04:14:28;;;;;;;;;13.50;13.50;;;;;22.91;52.42;101257.66;4863133;29;46572;-66
2022/07/24 04:16:53;;;;;;;;;11.25;10.25;;;;;22.99;52.29;101268.25;4879922;29;45308;-64
2022/07/24 04:19:19;;;;;;;;;14.25;12.50;;;;;22.97;52.58;101271.34;4863411;29;45859;-65
2022/07/24 04:21:44;;;;;;;;;16.50;13.50;;;;;23.10;52.61;101283.09;4863511;29;45590;-68
2022/07/24 04:24:10;;;;;;;;;13.75;12.25;;;;;22.99;52.63;101269.09;4879814;29;45874;-65
2022/07/24 04:26:35;;;;;;;;;17.50;13.25;;;;;23.08;52.24;101288.97;4863051;29;45349;-66
2022/07/24 04:29:00;;;;;;;;;15.25;12.75;;;;;23.06;52.74;101279.16;4879966;29;45400;-65
2022/07/24 04:31:26;;;;;;;;;15.00;14.25;;;;;23.12;53.09;101290.06;4880007;29;45432;-65
2022/07/24 04:33:51;;;;;;;;;18.50;17.00;;;;;22.94;52.80;101255.13;4862770;29;45468;-64
2022/07/24 04:36:17;;;;;;;;;16.75;14.50;;;;;23.05;52.79;101271.91;4847436;29;45454;-64
2022/07/24 04:38:43;;;;;;;;;16.25;15.50;;;;;23.05;52.98;101266.31;4880049;29;45400;-66
2022/07/24 04:41:08;;;;;;;;;18.75;16.00;;;;;22.96;53.13;101261.28;4847386;29;45465;-66
2022/07/24 04:43:34;;;;;;;;;16.00;15.50;;;;;23.14;52.97;101290.63;4863076;29;46302;-65
2022/07/24 04:45:59;;;;;;;;;16.00;15.00;;;;;23.15;53.25;101289.50;4863294;29;45422;-64
2022/07/24 04:48:25;;;;;;;;;14.50;13.25;;;;;23.07;52.95;101275.25;4850969;29;45337;-65
2022/07/24 04:50:51;;;;;;;;;17.00;14.50;;;;;23.17;53.25;101288.38;4866160;29;45374;-65
2022/07/24 04:53:16;;;;;;;;;12.40;11.00;;;;;22.99;52.94;101266.31;4848143;29;46329;-65
2022/07/24 04:55:42;;;;;;;;;17.00;16.25;;;;;23.11;53.41;101265.16;4879187;29;45438;-67
2022/07/24 04:58:07;;;;;;;;;15.25;15.25;;;;;23.17;52.68;101277.16;4876968;29;45894;-65
2022/07/24 05:00:33;;;;;;;;;15.50;14.75;;;;;23.17;52.69;101282.78;4889643;29;45301;-67
2022/07/24 05:02:58;;;;;;;;;14.00;14.00;;;;;23.11;53.22;101265.97;4896932;29;46305;-63
2022/07/24 05:05:24;;;;;;;;;13.50;13.25;;;;;23.02;52.89;101246.13;4884585;29;45872;-64
2022/07/24 05:07:49;;;;;;;;;16.75;15.75;;;;;23.16;52.58;101262.34;4884582;29;45397;-66
2022/07/24 05:10:15;;;;;;;;;11.75;11.00;;;;;23.18;53.03;101273.25;4882738;29;45366;-65
2022/07/24 05:12:40;;;;;;;;;12.25;12.25;;;;;23.18;52.90;101276.03;4865548;29;46836;-65
2022/07/24 05:15:06;;;;;;;;;14.25;12.25;;;;;23.01;52.98;101249.25;4882540;29;45373;-63
2022/07/24 05:17:33;;;;;;;;;11.80;11.00;;;;;23.16;53.07;101276.34;4865585;29;45462;-65
2022/07/24 05:19:58;;;;;;;;;13.60;13.60;;;;;22.98;53.08;101244.19;4865536;29;45333;-65
2022/07/24 05:22:24;;;;;;;;;15.00;14.25;;;;;23.16;53.27;101284.75;4882498;29;46695;-65
2022/07/24 05:24:49;;;;;;;;;18.00;17.25;;;;;23.04;53.03;101264.63;4865378;29;45374;-66
2022/07/24 05:27:15;;;;;;;;;19.50;16.50;;;;;23.16;52.97;101284.75;4882128;29;45303;-64
2022/07/24 05:29:41;;;;;;;;;12.50;12.50;;;;;23.22;52.81;101283.59;4882269;29;45327;-65
2022/07/24 05:32:06;;;;;;;;;14.00;13.75;;;;;23.25;52.66;101287.78;4882106;29;46039;-67
2022/07/24 05:34:32;;;;;;;;;16.75;15.25;;;;;23.14;52.83;101265.44;4865348;29;45565;-63
2022/07/24 05:36:57;;;;;;;;;13.00;13.00;;;;;23.29;52.75;101286.09;4882231;29;45501;-65
2022/07/24 05:39:23;;;;;;;;;17.00;14.00;;;;;23.25;52.87;101279.38;4882279;29;45554;-64
2022/07/24 05:41:48;;;;;;;;;15.50;14.50;;;;;23.31;52.55;101286.66;4865001;29;46641;-65
2022/07/24 05:44:13;;;;;;;;;17.50;17.50;;;;;23.26;52.86;101269.88;4865062;29;45248;-64
2022/07/24 05:46:39;;;;;;;;;14.50;14.00;;;;;23.29;52.66;101286.09;4882204;29;45354;-65
2022/07/24 05:49:04;;;;;;;;;16.75;13.75;;;;;23.20;52.83;101266.25;4865359;29;45530;-65
2022/07/24 05:51:30;;;;;;;;;17.50;15.50;;;;;23.33;52.63;101278.00;4881607;29;45799;-64
2022/07/24 05:53:56;;;;;;;;;15.00;12.50;;;;;23.34;52.18;101280.50;4857336;29;45709;-66
2022/07/24 05:56:21;;;;;;;;;15.75;13.75;;;;;23.17;52.23;101254.78;4877261;29;45443;-64
2022/07/24 05:58:46;;;;;;;;;14.25;14.25;;;;;23.06;52.16;101238.03;4877408;29;45313;-67
2022/07/24 06:01:12;;;;;;;;;14.00;13.00;;;;;23.31;52.05;101275.47;4865083;29;45627;-64
2022/07/24 06:03:37;;;;;;;;;17.75;17.75;;;;;23.26;52.00;101270.69;4881464;29;45757;-65
2022/07/24 06:06:04;;;;;;;;;15.50;13.75;;;;;23.14;52.19;101258.97;4881532;29;45416;-66
2022/07/24 06:08:30;;;;;;;;;16.40;15.40;;;;;23.33;52.38;101280.78;4849701;29;45357;-65
2022/07/24 06:10:55;;;;;;;;;11.50;11.50;;;;;23.34;52.36;101277.72;4864819;29;46888;-65
2022/07/24 06:13:21;;;;;;;;;16.50;16.00;;;;;23.28;52.35;101262.84;4865000;29;45779;-65
2022/07/24 06:15:46;;;;;;;;;13.75;11.75;;;;;23.34;52.41;101268.47;4849271;29;45421;-64
2022/07/24 06:18:12;;;;;;;;;17.25;15.75;;;;;23.36;52.65;101281.06;4881663;29;45445;-66
2022/07/24 06:20:37;;;;;;;;;14.75;14.25;;;;;23.34;52.19;101262.84;4864451;29;46419;-64
2022/07/24 06:23:03;;;;;;;;;15.00;14.50;;;;;23.37;52.84;101273.50;4881559;29;45396;-65
2022/07/24 06:25:28;;;;;;;;;16.00;16.00;;;;;23.24;52.87;101253.34;4881378;29;45735;-65
2022/07/24 06:27:54;;;;;;;;;19.00;16.00;;;;;23.33;52.73;101261.19;4881538;29;45397;-66
2022/07/24 06:30:24;;;;;;;;;18.50;16.50;;;;;23.20;52.78;101235.44;4880749;29;46455;-64
2022/07/24 06:32:50;;;;;;;;;14.60;14.60;;;;;23.18;52.85;101222.84;4864807;29;45461;-64
2022/07/24 06:35:15;;;;;;;;;14.80;14.80;;;;;23.26;52.97;101239.91;4864554;29;45401;-64
2022/07/24 06:37:41;;;;;;;;;14.00;14.00;;;;;23.32;52.90;101239.91;4880113;29;45281;-66
2022/07/24 06:40:07;;;;;;;;;19.00;16.00;;;;;23.48;52.85;101263.91;4864250;29;45796;-64
2022/07/24 06:42:33;;;;;;;;;16.25;16.25;;;;;23.33;52.84;101236.84;4864386;29;45883;-66
2022/07/24 06:44:58;;;;;;;;;16.75;15.50;;;;;23.52;53.26;101262.22;4864289;29;45431;-65
2022/07/24 06:47:25;;;;;;;;;17.50;16.00;;;;;23.45;53.22;101244.91;4881592;29;45352;-65
2022/07/24 06:49:52;;;;;;;;;17.60;17.60;;;;;23.51;53.38;101257.75;4864348;29;45500;-67
2022/07/24 06:52:17;;;;;;;;;18.20;17.40;;;;;23.31;53.46;101241.88;4848524;29;45367;-63
2022/07/24 06:54:43;;;;;;;;;17.50;16.50;;;;;23.49;53.37;101256.38;4845390;29;45463;-65
2022/07/24 06:57:08;;;;;;;;;21.75;20.00;;;;;23.51;53.56;101259.69;4846297;29;45815;-67
2022/07/24 06:59:34;;;;;;;;;17.00;17.00;;;;;23.33;53.95;101227.59;4845352;29;47179;-64
2022/07/24 07:01:59;;;;;;;;;25.50;21.00;;;;;23.39;53.71;101230.09;4860728;29;45309;-67
2022/07/24 07:04:25;;;;;;;;;17.00;15.75;;;;;23.52;53.68;101247.38;4862180;29;45208;-65
2022/07/24 07:06:50;;;;;;;;;18.25;18.25;;;;;23.57;53.83;101258.56;4862007;29;45297;-65
2022/07/24 07:09:15;;;;;;;;;18.25;17.25;;;;;23.56;53.60;101254.09;4860703;29;46743;-64
2022/07/24 07:11:41;;;;;;;;;17.00;16.00;;;;;23.63;53.40;101256.59;4845357;29;45325;-65
2022/07/24 07:14:07;;;;;;;;;22.25;20.50;;;;;23.58;53.69;101243.41;4861862;29;45436;-65
2022/07/24 07:16:32;;;;;;;;;22.75;21.00;;;;;23.67;53.63;101264.13;4860915;29;45301;-64
2022/07/24 07:18:58;;;;;;;;;20.75;19.75;;;;;23.68;53.31;101253.72;4859972;29;45629;-66
2022/07/24 07:21:23;;;;;;;;;20.25;18.75;;;;;23.55;53.70;101230.81;4860423;29;45782;-64
2022/07/24 07:23:49;;;;;;;;;17.25;17.25;;;;;23.72;53.45;101260.44;4845110;29;45424;-64
2022/07/24 07:26:14;;;;;;;;;22.50;22.50;;;;;23.75;53.50;101259.84;4845052;29;45354;-67
2022/07/24 07:28:40;;;;;;;;;22.75;21.75;;;;;23.78;53.67;101255.63;4844631;29;46847;-64
2022/07/24 07:31:05;;;;;;;;;20.75;18.75;;;;;23.87;53.63;101259.53;4861435;29;45428;-66
2022/07/24 07:33:31;;;;;;;;;22.75;21.00;;;;;23.91;53.38;101260.59;4861724;29;45443;-63
2022/07/24 07:35:56;;;;;;;;;19.50;17.50;;;;;23.95;53.26;101256.09;4860241;29;45421;-64
2022/07/24 07:38:22;;;;;;;;;26.25;19.75;;;;;24.03;52.88;101260.25;4861570;29;46383;-63
2022/07/24 07:40:47;;;;;;;;;22.75;22.75;;;;;24.01;53.38;101248.47;4844691;29;45338;-65
2022/07/24 07:43:13;;;;;;;;;21.00;20.00;;;;;24.11;52.95;101250.41;4844533;29;45369;-64
2022/07/24 07:45:39;;;;;;;;;22.75;19.75;;;;;24.13;53.35;101252.91;4844516;29;45556;-65
2022/07/24 07:48:04;;;;;;;;;22.00;21.50;;;;;24.21;52.95;101252.28;4844474;29;46756;-63
2022/07/24 07:50:30;;;;;;;;;21.75;20.50;;;;;24.25;52.82;101249.72;4874452;29;45633;-65
2022/07/24 07:52:56;;;;;;;;;22.00;20.25;;;;;24.20;52.98;101240.25;4879818;29;45379;-64
2022/07/24 07:55:21;;;;;;;;;22.00;21.25;;;;;24.30;52.93;101253.34;4852525;29;45350;-64
2022/07/24 07:57:47;;;;;;;;;23.00;20.00;;;;;24.37;52.50;101250.19;4811359;29;49523;-64
2022/07/24 08:00:13;;;;;;;;;22.25;20.75;;;;;24.40;52.47;101249.63;4858644;29;45837;-64
2022/07/24 08:02:38;;;;;;;;;21.50;20.00;;;;;24.41;52.57;101245.69;4841285;29;45972;-64
2022/07/24 08:05:05;;;;;;;;;20.00;18.75;;;;;24.52;52.26;101234.34;4872626;29;45472;-64
2022/07/24 08:07:30;;;;;;;;;22.40;20.40;;;;;24.55;52.61;101239.38;4842026;29;46621;-65
2022/07/24 08:09:56;;;;;;;;;19.00;18.25;;;;;24.60;52.33;101239.34;4875034;29;45483;-64
2022/07/24 08:12:21;;;;;;;;;23.00;19.50;;;;;24.66;52.00;101245.72;4858669;29;45460;-64
2022/07/24 08:14:47;;;;;;;;;20.50;19.50;;;;;24.69;52.22;101234.75;4875491;29;45608;-63
2022/07/24 08:17:12;;;;;;;;;17.25;16.50;;;;;24.75;52.21;101233.56;4850299;29;46605;-68
2022/07/24 08:19:38;;;;;;;;;19.00;16.00;;;;;24.81;51.70;101227.94;4855613;29;45586;-66
2022/07/24 08:22:04;;;;;;;;;21.00;18.00;;;;;24.86;51.49;101225.09;4861159;29;45471;-64
2022/07/24 08:24:32;;;;;;;;;18.80;16.60;;;;;24.94;51.07;101234.81;4860391;29;45499;-65
2022/07/24 08:26:57;;;;;;;;;16.60;16.60;;;;;24.94;50.98;101230.03;4877451;29;45480;-65
2022/07/24 08:29:23;;;;;;;;;22.75;20.25;;;;;24.94;50.92;101221.63;4876646;29;45489;-67
2022/07/24 08:31:48;;;;;;;;;20.50;18.25;;;;;24.97;51.25;101225.81;4876178;29;45892;-66
2022/07/24 08:34:14;;;;;;;;;19.00;19.00;;;;;25.06;51.06;101234.41;4860371;29;45534;-67
2022/07/24 08:36:39;;;;;;;;;20.25;17.75;;;;;24.93;49.97;101196.63;4859017;29;46240;-63
2022/07/24 08:39:05;;;;;;;;;19.75;17.00;;;;;25.15;50.26;101229.78;4877040;29;45701;-64
2022/07/24 08:41:32;;;;;;;;;19.50;16.75;;;;;25.20;50.19;101226.94;4859481;29;45517;-64
2022/07/24 08:43:59;;;;;;;;;20.60;20.60;;;;;25.25;49.94;101224.06;4876253;29;45361;-63
2022/07/24 08:46:24;;;;;;;;;18.00;17.20;;;;;25.17;49.34;101208.69;4846518;28;46816;-64
2022/07/24 08:48:50;;;;;;;;;13.50;13.50;;;;;25.35;49.27;101217.44;4843448;29;45472;-67
2022/07/24 08:51:15;;;;;;;;;16.00;14.25;;;;;25.47;48.89;101218.97;4842145;29;45800;-64
2022/07/24 08:53:42;;;;;;;;;15.50;14.25;;;;;25.52;48.26;101210.50;4857024;29;45430;-63
2022/07/24 08:56:07;;;;;;;;;12.80;11.60;;;;;25.53;47.37;101210.22;4828329;29;47028;-65
2022/07/24 08:58:40;;;;;;;;;17.25;14.00;;;;;25.53;47.75;101204.59;4859996;29;45869;-66
2022/07/24 09:01:06;;;;;;;;;19.40;19.00;;;;;25.62;47.88;101203.91;4844385;29;45397;-64
2022/07/24 09:03:43;;;;;;;;;17.00;15.00;;;;;25.70;47.97;101204.06;4844968;29;45820;-63
2022/07/24 09:06:10;;;;;;;;;12.60;12.60;;;;;25.78;47.84;101196.91;4858806;29;46169;-63
2022/07/24 09:08:36;;;;;;;;;17.00;15.00;;;;;25.87;46.99;101196.25;4858769;29;45777;-62
2022/07/24 09:11:05;;;;;;;;;14.40;13.20;;;;;25.88;46.77;101173.44;4860589;29;45927;-64
2022/07/24 09:16:22;;;;;;;;;15.80;13.00;;;;;26.09;45.87;101184.34;4848931;29;45940;-62
2022/07/24 09:18:49;;;;;;;;;14.80;13.80;;;;;26.00;45.79;101161.72;4842985;29;45885;-62
2022/07/24 09:21:15;;;;;;;;;15.00;13.40;;;;;26.14;45.35;101169.38;4857702;29;45514;-67
2022/07/24 09:23:41;;;;;;;;;13.60;13.40;;;;;26.21;44.97;101175.44;4860752;29;45681;-66
2022/07/24 09:26:06;;;;;;;;;13.25;13.00;;;;;26.24;45.25;101158.78;4845403;29;45426;-66
2022/07/24 09:28:48;;;;;;;;;12.00;12.00;;;;;26.37;44.04;101174.03;4859004;29;45711;-69
2022/07/24 09:31:13;;;;;;;;;12.40;10.60;;;;;26.43;44.26;101168.31;4874714;29;45619;-69
2022/07/24 09:33:39;;;;;;;;;13.75;12.00;;;;;26.44;43.33;101162.38;4845057;29;45698;-66
2022/07/24 09:36:14;;;;;;;;;15.25;11.25;;;;;26.38;43.57;101136.31;4859394;29;46740;-69
2022/07/24 09:38:50;;;;;;;;;14.20;13.80;;;;;26.53;42.87;101154.88;4860094;29;45675;-65
2022/07/24 09:41:23;;;;;;;;;8.80;8.40;;;;;26.53;42.51;101149.25;4841534;29;45491;-67
2022/07/24 09:44:02;;;;;;;;;15.00;12.80;;;;;26.36;42.76;101110.47;4856545;29;45530;-66
2022/07/24 09:46:28;;;;;;;;;11.20;11.20;;;;;26.53;42.23;101129.53;4845637;29;47401;-66
2022/07/24 09:48:57;;;;;;;;;4.50;3.75;;;;;26.71;42.38;101145.81;4841782;29;45504;-68
2022/07/24 09:51:23;;;;;;;;;8.80;8.80;;;;;26.66;41.92;101130.72;4861782;29;45483;-67
2022/07/24 09:53:55;;;;;;;;;10.00;8.80;;;;;26.64;41.96;101113.28;4845142;29;46051;-64
2022/07/24 09:56:21;;;;;;;;;9.80;8.20;;;;;26.77;41.10;101131.34;4842863;28;46142;-62
2022/07/24 09:58:47;;;;;;;;;11.25;10.75;;;;;26.85;41.50;101132.59;4860664;29;45481;-64
2022/07/24 10:01:15;;;;;;;;;11.25;10.25;;;;;26.72;41.60;101105.28;4877138;29;45763;-62
2022/07/24 10:03:42;;;;;;;;;11.20;10.20;;;;;26.90;41.39;101135.31;4845123;29;45845;-56
2022/07/24 10:06:09;;;;;;;;;14.80;12.80;;;;;26.79;41.65;101114.13;4855477;29;46500;-60
2022/07/24 10:08:35;;;;;;;;;11.80;9.20;;;;;26.95;41.25;101123.13;4843427;29;45531;-61
2022/07/24 10:11:01;;;;;;;;;11.20;11.00;;;;;27.06;41.33;101127.38;4838643;29;45544;-61
2022/07/24 10:13:29;;;;;;;;;9.25;9.25;;;;;27.13;41.67;101126.94;4858401;29;45558;-60
2022/07/24 10:16:10;;;;;;;;;12.00;12.00;;;;;27.16;41.31;101120.66;4835010;29;46023;-60
2022/07/24 10:19:10;;;;;;;;;7.60;7.60;;;;;27.26;40.53;101121.59;4875420;29;45501;-60
2022/07/24 10:21:37;;;;;;;;;11.20;8.80;;;;;27.33;40.10;101114.34;4845059;29;45863;-60
2022/07/24 10:24:23;;;;;;;;;9.40;8.40;;;;;27.27;40.91;101101.53;4859838;29;45910;-62
2022/07/24 10:26:49;;;;;;;;;10.20;8.60;;;;;27.35;40.50;101105.59;4876782;29;47287;-61
2022/07/24 10:29:20;;;;;;;;;12.00;11.25;;;;;27.55;39.09;101107.09;4859762;29;45830;-66
2022/07/24 10:31:50;;;;;;;;;9.80;7.00;;;;;27.69;39.93;101117.50;4842429;29;45856;-61
2022/07/24 10:34:34;;;;;;;;;6.60;6.40;;;;;27.61;39.39;101085.28;4876890;29;45687;-62
2022/07/24 10:37:30;;;;;;;;;10.40;10.40;;;;;27.67;38.75;101100.06;4875340;29;45833;-61
2022/07/24 10:40:18;;;;;;;;;11.00;9.80;;;;;27.88;38.49;101117.31;4876400;29;45468;-61
2022/07/24 10:43:05;;;;;;;;;11.40;9.60;;;;;27.96;38.51;101112.88;4875158;29;45808;-60
2022/07/24 10:45:31;;;;;;;;;10.80;10.20;;;;;27.90;38.58;101095.25;4874579;29;45322;-61
2022/07/24 10:47:57;;;;;;;;;10.00;10.00;;;;;28.09;37.88;101111.97;4856557;29;45451;-63
2022/07/24 10:50:22;;;;;;;;;11.25;11.25;;;;;28.12;38.00;101091.56;4859598;29;45400;-61
2022/07/24 10:52:48;;;;;;;;;12.00;10.25;;;;;28.04;38.79;101068.94;4859392;29;45960;-62
2022/07/24 10:55:29;;;;;;;;;12.00;10.00;;;;;28.18;38.63;101078.16;4875072;29;45407;-64
2022/07/24 10:58:00;;;;;;;;;10.80;8.20;;;;;28.35;37.59;101093.53;4850407;29;46499;-64
2022/07/24 11:00:27;;;;;;;;;8.40;7.80;;;;;28.38;36.26;101087.25;4859645;29;45493;-61
2022/07/24 11:02:59;;;;;;;;;8.00;8.00;;;;;28.41;35.88;101078.97;4856447;29;45593;-61
2022/07/24 11:05:26;;;;;;;;;11.00;10.00;;;;;28.34;36.12;101053.19;4876467;29;45788;-64
2022/07/24 11:08:20;;;;;;;;;12.00;10.60;;;;;28.52;36.18;101073.00;4842737;29;46073;-61
2022/07/24 11:10:52;;;;;;;;;10.40;10.00;;;;;28.53;36.71;101069.03;4876732;29;45509;-61